sensor_id;sensor_type;location;lat;lon;timestamp;pressure;altitude;pressure_sealevel;temperature
14023;BMP180;7086;48.116;11.580;2023-01-26T00:02:41;95471.00;;;4.60
14023;BMP180;7086;48.116;11.580;2023-01-26T00:05:13;95435.00;;;4.60
14023;BMP180;7086;48.116;11.580;2023-01-26T00:07:55;95423.00;;;4.60
14023;BMP180;7086;48.116;11.580;2023-01-26T00:10:40;95602.00;;;4.70
14023;BMP180;7086;48.116;11.580;2023-01-26T00:13:18;95607.00;;;4.30
14023;BMP180;7086;48.116;11.580;2023-01-26T00:28:50;95599.00;;;4.70
14023;BMP180;7086;48.116;11.580;2023-01-26T00:33:58;95468.00;;;4.70
14023;BMP180;7086;48.116;11.580;2023-01-26T00:41:38;95464.00;;;4.80
14023;BMP180;7086;48.116;11.580;2023-01-26T00:48:14;95421.00;;;4.80
14023;BMP180;7086;48.116;11.580;2023-01-26T00:53:39;95413.00;;;4.70
14023;BMP180;7086;48.116;11.580;2023-01-26T00:56:29;95394.00;;;4.70
14023;BMP180;7086;48.116;11.580;2023-01-26T00:59:13;95507.00;;;4.40
14023;BMP180;7086;48.116;11.580;2023-01-26T01:02:16;95409.00;;;4.60
14023;BMP180;7086;48.116;11.580;2023-01-26T01:04:53;95553.00;;;4.70
14023;BMP180;7086;48.116;11.580;2023-01-26T01:07:23;95560.00;;;4.80
14023;BMP180;7086;48.116;11.580;2023-01-26T01:12:32;95575.00;;;4.80
14023;BMP180;7086;48.116;11.580;2023-01-26T01:15:24;95464.00;;;4.40
14023;BMP180;7086;48.116;11.580;2023-01-26T01:18:26;95426.00;;;4.80
14023;BMP180;7086;48.116;11.580;2023-01-26T01:24:27;95565.00;;;4.80
14023;BMP180;7086;48.116;11.580;2023-01-26T01:27:38;95552.00;;;4.70
14023;BMP180;7086;48.116;11.580;2023-01-26T01:30:25;95565.00;;;4.40
14023;BMP180;7086;48.116;11.580;2023-01-26T01:33:11;95422.00;;;4.50
14023;BMP180;7086;48.116;11.580;2023-01-26T01:36:10;95459.00;;;4.80
14023;BMP180;7086;48.116;11.580;2023-01-26T01:38:58;95564.00;;;4.30
14023;BMP180;7086;48.116;11.580;2023-01-26T01:49:12;95599.00;;;4.70
14023;BMP180;7086;48.116;11.580;2023-01-26T01:52:04;95452.00;;;4.60
14023;BMP180;7086;48.116;11.580;2023-01-26T01:54:46;95585.00;;;4.70
14023;BMP180;7086;48.116;11.580;2023-01-26T01:57:27;95486.00;;;4.70
14023;BMP180;7086;48.116;11.580;2023-01-26T02:00:14;95536.00;;;4.70
14023;BMP180;7086;48.116;11.580;2023-01-26T02:02:47;95403.00;;;4.60
14023;BMP180;7086;48.116;11.580;2023-01-26T02:05:46;95376.00;;;4.70
14023;BMP180;7086;48.116;11.580;2023-01-26T02:08:21;95566.00;;;4.70
14023;BMP180;7086;48.116;11.580;2023-01-26T02:10:58;95478.00;;;4.80
14023;BMP180;7086;48.116;11.580;2023-01-26T02:13:31;95450.00;;;4.30
14023;BMP180;7086;48.116;11.580;2023-01-26T02:16:02;95544.00;;;4.30
14023;BMP180;7086;48.116;11.580;2023-01-26T02:18:31;95585.00;;;4.20
14023;BMP180;7086;48.116;11.580;2023-01-26T02:21:02;95405.00;;;4.40
14023;BMP180;7086;48.116;11.580;2023-01-26T02:23:47;95465.00;;;4.40
14023;BMP180;7086;48.116;11.580;2023-01-26T02:26:34;95547.00;;;4.80
14023;BMP180;7086;48.116;11.580;2023-01-26T02:29:10;95476.00;;;4.80
14023;BMP180;7086;48.116;11.580;2023-01-26T02:31:49;95434.00;;;4.70
14023;BMP180;7086;48.116;11.580;2023-01-26T02:34:19;95542.00;;;4.80
14023;BMP180;7086;48.116;11.580;2023-01-26T02:36:57;95416.00;;;4.80
14023;BMP180;7086;48.116;11.580;2023-01-26T02:39:43;95410.00;;;4.80
14023;BMP180;7086;48.116;11.580;2023-01-26T02:42:29;95349.00;;;4.80
14023;BMP180;7086;48.116;11.580;2023-01-26T02:45:23;95519.00;;;4.40
14023;BMP180;7086;48.116;11.580;2023-01-26T02:48:13;95492.00;;;4.80
14023;BMP180;7086;48.116;11.580;2023-01-26T02:53:46;95536.00;;;4.70
14023;BMP180;7086;48.116;11.580;2023-01-26T02:56:21;95386.00;;;4.70
14023;BMP180;7086;48.116;11.580;2023-01-26T02:58:56;95487.00;;;4.30
14023;BMP180;7086;48.116;11.580;2023-01-26T03:01:39;95340.00;;;4.60
14023;BMP180;7086;48.116;11.580;2023-01-26T03:04:10;95494.00;;;4.70
14023;BMP180;7086;48.116;11.580;2023-01-26T03:06:45;95377.00;;;4.70
14023;BMP180;7086;48.116;11.580;2023-01-26T03:09:16;95434.00;;;4.10
14023;BMP180;7086;48.116;11.580;2023-01-26T03:11:44;95502.00;;;4.50
14023;BMP180;7086;48.116;11.580;2023-01-26T03:14:14;95478.00;;;4.50
14023;BMP180;7086;48.116;11.580;2023-01-26T03:16:42;95478.00;;;4.70
14023;BMP180;7086;48.116;11.580;2023-01-26T03:19:14;95387.00;;;4.70
14023;BMP180;7086;48.116;11.580;2023-01-26T03:22:00;95372.00;;;4.70
14023;BMP180;7086;48.116;11.580;2023-01-26T03:24:45;95379.00;;;4.70
14023;BMP180;7086;48.116;11.580;2023-01-26T03:27:37;95464.00;;;4.70
14023;BMP180;7086;48.116;11.580;2023-01-26T03:30:08;95364.00;;;4.70
14023;BMP180;7086;48.116;11.580;2023-01-26T03:32:36;95470.00;;;4.70
14023;BMP180;7086;48.116;11.580;2023-01-26T03:35:09;95404.00;;;4.70
14023;BMP180;7086;48.116;11.580;2023-01-26T03:37:41;95444.00;;;4.60
14023;BMP180;7086;48.116;11.580;2023-01-26T03:40:13;95350.00;;;4.70
14023;BMP180;7086;48.116;11.580;2023-01-26T03:43:05;95291.00;;;4.30
14023;BMP180;7086;48.116;11.580;2023-01-26T03:45:56;95354.00;;;4.70
14023;BMP180;7086;48.116;11.580;2023-01-26T03:48:45;95326.00;;;4.70
14023;BMP180;7086;48.116;11.580;2023-01-26T03:51:31;95302.00;;;4.70
14023;BMP180;7086;48.116;11.580;2023-01-26T03:54:18;95348.00;;;4.70
14023;BMP180;7086;48.116;11.580;2023-01-26T03:57:03;95371.00;;;4.10
14023;BMP180;7086;48.116;11.580;2023-01-26T03:59:31;95478.00;;;4.70
14023;BMP180;7086;48.116;11.580;2023-01-26T04:02:08;95481.00;;;4.70
14023;BMP180;7086;48.116;11.580;2023-01-26T04:04:53;95447.00;;;4.50
14023;BMP180;7086;48.116;11.580;2023-01-26T04:07:39;95470.00;;;4.70
14023;BMP180;7086;48.116;11.580;2023-01-26T04:10:25;95468.00;;;4.60
14023;BMP180;7086;48.116;11.580;2023-01-26T04:12:54;95348.00;;;4.70
14023;BMP180;7086;48.116;11.580;2023-01-26T04:15:41;95362.00;;;4.80
14023;BMP180;7086;48.116;11.580;2023-01-26T04:18:27;95417.00;;;4.80
14023;BMP180;7086;48.116;11.580;2023-01-26T04:21:12;95447.00;;;4.80
14023;BMP180;7086;48.116;11.580;2023-01-26T04:23:59;95443.00;;;4.80
14023;BMP180;7086;48.116;11.580;2023-01-26T04:26:29;95437.00;;;4.80
14023;BMP180;7086;48.116;11.580;2023-01-26T04:29:00;95400.00;;;4.80
14023;BMP180;7086;48.116;11.580;2023-01-26T04:31:28;95431.00;;;4.80
14023;BMP180;7086;48.116;11.580;2023-01-26T04:34:05;95355.00;;;4.80
14023;BMP180;7086;48.116;11.580;2023-01-26T04:36:32;95368.00;;;4.80
14023;BMP180;7086;48.116;11.580;2023-01-26T04:39:00;95423.00;;;4.80
14023;BMP180;7086;48.116;11.580;2023-01-26T04:41:31;95344.00;;;4.80
14023;BMP180;7086;48.116;11.580;2023-01-26T04:44:04;95441.00;;;4.70
14023;BMP180;7086;48.116;11.580;2023-01-26T04:46:32;95360.00;;;4.80
14023;BMP180;7086;48.116;11.580;2023-01-26T04:49:01;95334.00;;;4.80
14023;BMP180;7086;48.116;11.580;2023-01-26T04:51:30;95430.00;;;4.80
14023;BMP180;7086;48.116;11.580;2023-01-26T04:54:08;95325.00;;;4.80
14023;BMP180;7086;48.116;11.580;2023-01-26T04:56:49;95341.00;;;4.60
14023;BMP180;7086;48.116;11.580;2023-01-26T04:59:31;95340.00;;;4.80
14023;BMP180;7086;48.116;11.580;2023-01-26T05:30:05;95431.00;;;4.60
14023;BMP180;7086;48.116;11.580;2023-01-26T05:35:27;95343.00;;;4.60
14023;BMP180;7086;48.116;11.580;2023-01-26T20:53:13;95332.00;;;5.10
14023;BMP180;7086;48.116;11.580;2023-01-26T20:55:59;95196.00;;;5.10
14023;BMP180;7086;48.116;11.580;2023-01-26T20:58:42;95217.00;;;5.10
14023;BMP180;7086;48.116;11.580;2023-01-26T21:01:25;95172.00;;;5.10
14023;BMP180;7086;48.116;11.580;2023-01-26T21:04:07;95248.00;;;5.10
14023;BMP180;7086;48.116;11.580;2023-01-26T21:06:51;95317.00;;;5.10
14023;BMP180;7086;48.116;11.580;2023-01-26T21:16:43;95207.00;;;5.10
14023;BMP180;7086;48.116;11.580;2023-01-26T21:19:36;95305.00;;;5.10
14023;BMP180;7086;48.116;11.580;2023-01-26T21:25:02;95196.00;;;4.90
14023;BMP180;7086;48.116;11.580;2023-01-26T21:27:46;95315.00;;;5.10
14023;BMP180;7086;48.116;11.580;2023-01-26T21:30:36;95244.00;;;5.10
14023;BMP180;7086;48.116;11.580;2023-01-26T22:02:01;95181.00;;;5.00
14023;BMP180;7086;48.116;11.580;2023-01-26T23:08:04;95296.00;;;5.20
14023;BMP180;7086;48.116;11.580;2023-01-26T23:13:33;95158.00;;;5.10
14023;BMP180;7086;48.116;11.580;2023-01-26T23:18:53;95271.00;;;5.10
14023;BMP180;7086;48.116;11.580;2023-01-26T23:21:35;95289.00;;;5.00
14023;BMP180;7086;48.116;11.580;2023-01-26T23:38:24;95310.00;;;4.90
14023;BMP180;7086;48.116;11.580;2023-01-26T23:40:53;95270.00;;;4.50
14023;BMP180;7086;48.116;11.580;2023-01-26T23:43:52;95281.00;;;4.90
14023;BMP180;7086;48.116;11.580;2023-01-26T23:46:24;95120.00;;;4.90
14023;BMP180;7086;48.116;11.580;2023-01-26T23:49:06;95146.00;;;5.00
